logo
Rechercher aéroport 
image banner adimage banner adimage banner ad
image banner ad

FAMUNS - Munster

Situé à , South Africa

ICAO - , IATA -

Données fournies par Airmate  

Information générale

Coordonnées: S31°0'22" E30°14'56"
Élévation : 150 feet MSL.
 
Voir autres Aéroports à Eastern Cape

Données opérationnelles

Special qualification required
Heure actuelle UTC:
Heure actuelle locale:
Météo à : - ( 0 km )
METAR: KXER 220840Z AUTO 14014KT 6SM BR FEW011 SCT017 BKN045 26/25 A2991 RMK A01
Voir NOTAMs / SUP AIP / TFR affectant cet aéroport [VIEW]
Fréquences de communication: [VIEW]

Pistes:

Identifiant RWYQFULongueur (ft)Largeur (ft)SurfaceLDA (ft)
0420°164066GRASS
22200°164066GRASS

Coordonnées de l'aéroport

Adresse: South Africa

Vue satellite de FAMUNS